Time;durP1;ratioP1;P1;durP2;ratioP2;P2;SDS_P1;SDS_P2;PMS_P1;PMS_P2;Temp;Humidity;BMP_temperature;BMP_pressure;BME280_temperature;BME280_humidity;BME280_pressure;Samples;Min_cycle;Max_cycle;Signal;HPM_P1;HPM_P2
2024/04/07 00:02:46;;;;;;;10.25;4.32;;;;;;;18.89;79.49;100695.22;5080835;27;20089;-67
2024/04/07 00:05:33;;;;;;;7.55;3.95;;;;;;;18.87;79.69;100698.28;5093175;28;20048;-71
2024/04/07 00:08:20;;;;;;;12.63;4.40;;;;;;;18.86;80.21;100723.47;5096408;28;20067;-69
2024/04/07 00:11:07;;;;;;;9.48;4.35;;;;;;;18.88;80.21;100743.25;5080523;27;20036;-68
2024/04/07 00:13:54;;;;;;;9.32;4.03;;;;;;;18.88;80.08;100737.75;5117626;27;20051;-67
2024/04/07 00:16:41;;;;;;;9.15;4.20;;;;;;;18.88;79.81;100757.91;5087197;28;20079;-68
2024/04/07 00:19:29;;;;;;;10.80;3.80;;;;;;;18.89;79.49;100769.75;5085108;28;20063;-67
2024/04/07 00:22:16;;;;;;;11.10;4.50;;;;;;;18.90;79.07;100746.50;5071846;28;20134;-68
2024/04/07 00:25:04;;;;;;;10.15;4.18;;;;;;;18.89;79.07;100747.66;5088158;28;20069;-68
2024/04/07 00:27:51;;;;;;;13.00;4.00;;;;;;;18.90;78.75;100729.94;5087353;28;20097;-69
2024/04/07 00:30:38;;;;;;;11.63;3.78;;;;;;;18.90;78.44;100768.59;5078947;28;20052;-68
2024/04/07 00:33:25;;;;;;;10.27;3.67;;;;;;;18.90;78.40;100754.81;5060452;28;20469;-68
2024/04/07 00:36:12;;;;;;;12.13;4.43;;;;;;;18.89;78.08;100778.03;5055074;28;20044;-67
2024/04/07 00:38:59;;;;;;;10.80;3.67;;;;;;;18.89;77.92;100772.50;5087011;28;20135;-68
2024/04/07 00:41:46;;;;;;;8.57;3.90;;;;;;;18.87;78.05;100778.34;5090933;28;20047;-68
2024/04/07 00:44:33;;;;;;;13.30;3.90;;;;;;;18.86;77.62;100798.03;5102809;28;20055;-68
2024/04/07 00:47:20;;;;;;;12.00;4.18;;;;;;;18.84;77.86;100803.06;5102921;28;20047;-67
2024/04/07 00:50:07;;;;;;;10.65;4.13;;;;;;;18.84;77.43;100819.63;5086042;28;20051;-67
2024/04/07 00:52:54;;;;;;;8.90;3.20;;;;;;;18.83;77.54;100826.25;5086472;28;20042;-68
2024/04/07 00:55:42;;;;;;;9.77;3.60;;;;;;;18.80;77.33;100841.53;5073841;28;20052;-68
2024/04/07 00:58:30;;;;;;;12.27;3.53;;;;;;;18.80;77.01;100818.63;5074210;27;20468;-70
2024/04/07 01:01:17;;;;;;;8.43;3.17;;;;;;;18.79;77.26;100817.81;5056103;28;20074;-67
2024/04/07 01:04:04;;;;;;;7.82;3.28;;;;;;;18.79;77.54;100804.03;5064725;28;20074;-68
2024/04/07 01:06:51;;;;;;;8.85;3.15;;;;;;;18.78;78.08;100804.34;5078441;28;20048;-67
2024/04/07 01:09:39;;;;;;;13.55;3.40;;;;;;;18.79;78.52;100850.13;5069319;28;20352;-67
2024/04/07 01:12:26;;;;;;;10.48;2.92;;;;;;;18.77;79.18;100860.69;5099448;28;20112;-67
2024/04/07 01:15:13;;;;;;;9.30;3.10;;;;;;;18.74;79.27;100859.34;5085115;28;20066;-67
2024/04/07 01:18:01;;;;;;;13.95;3.88;;;;;;;18.72;80.02;100884.50;5048922;28;20050;-67
2024/04/07 01:20:48;;;;;;;8.80;3.08;;;;;;;18.67;80.71;100870.88;5096319;28;20122;-67
2024/04/07 01:23:35;;;;;;;13.55;3.50;;;;;;;18.66;81.38;100868.41;5096132;28;20163;-67
2024/04/07 01:26:24;;;;;;;13.52;3.40;;;;;;;18.62;81.74;100890.34;5109770;27;20074;-67
2024/04/07 01:29:11;;;;;;;9.68;2.80;;;;;;;18.56;82.45;100902.66;5104410;27;20097;-66
2024/04/07 01:31:58;;;;;;;8.65;2.85;;;;;;;18.48;83.23;100887.69;5094812;27;20044;-66
2024/04/07 01:34:45;;;;;;;10.15;3.05;;;;;;;18.44;83.99;100899.69;5084465;28;20047;-68
2024/04/07 01:37:32;;;;;;;9.98;2.83;;;;;;;18.41;84.63;100900.34;5082861;28;20411;-67
2024/04/07 01:40:19;;;;;;;12.50;3.17;;;;;;;18.37;85.21;100893.81;5084016;27;20141;-67
2024/04/07 01:43:06;;;;;;;11.48;3.20;;;;;;;18.33;85.75;100895.56;5088973;27;20081;-67
2024/04/07 01:45:53;;;;;;;9.90;3.05;;;;;;;18.29;86.49;100898.97;5100558;27;20124;-68
2024/04/07 01:48:40;;;;;;;9.13;2.50;;;;;;;18.28;86.90;100905.66;5113349;27;20190;-69
2024/04/07 01:51:27;;;;;;;7.78;2.90;;;;;;;18.25;87.57;100920.06;5082943;28;20047;-68
2024/04/07 01:54:15;;;;;;;7.82;2.60;;;;;;;18.22;88.24;100919.88;5082985;28;20047;-68
2024/04/07 01:57:02;;;;;;;8.07;2.65;;;;;;;18.19;88.49;100942.59;5068537;28;20040;-68
2024/04/07 01:59:49;;;;;;;9.35;2.88;;;;;;;18.16;88.24;100957.00;5081487;28;20090;-68
2024/04/07 02:02:37;;;;;;;10.77;2.67;;;;;;;18.11;87.63;100941.38;5082134;28;20047;-67
2024/04/07 02:05:24;;;;;;;5.07;2.30;;;;;;;18.07;88.24;100973.50;5089502;28;20058;-67
2024/04/07 02:08:11;;;;;;;8.43;2.40;;;;;;;18.03;88.81;101000.06;5085883;28;20522;-67
2024/04/07 02:10:58;;;;;;;6.32;2.20;;;;;;;18.00;89.43;101011.72;5082971;28;20442;-68
2024/04/07 02:13:44;;;;;;;5.28;2.50;;;;;;;18.00;90.03;101022.75;5097135;28;20079;-69
2024/04/07 02:16:32;;;;;;;7.88;2.60;;;;;;;17.98;90.39;101036.03;5083723;28;20052;-68
2024/04/07 02:19:19;;;;;;;9.27;2.97;;;;;;;17.95;90.67;101040.25;5076520;28;20051;-68
2024/04/07 02:22:06;;;;;;;6.80;2.60;;;;;;;17.93;90.89;101050.75;5091529;28;20121;-68
2024/04/07 02:24:53;;;;;;;7.93;2.50;;;;;;;17.90;90.98;101054.16;5062227;28;20059;-68
2024/04/07 02:27:40;;;;;;;6.85;2.30;;;;;;;17.87;91.70;101054.75;5069559;28;20450;-68
2024/04/07 02:30:27;;;;;;;7.97;2.60;;;;;;;17.87;91.73;101052.84;5062126;28;20085;-67
2024/04/07 02:33:14;;;;;;;8.18;2.28;;;;;;;17.86;91.52;101042.91;5078145;28;20118;-67
2024/04/07 02:36:01;;;;;;;8.05;2.30;;;;;;;17.85;91.82;101065.28;5081965;28;20460;-67
2024/04/07 02:38:48;;;;;;;9.52;2.60;;;;;;;17.83;91.72;101071.09;5075437;28;20051;-67
2024/04/07 02:41:41;;;;;;;8.30;3.10;;;;;;;17.81;91.20;101075.31;5070736;28;20388;-69
2024/04/07 02:50:40;;;;;;;7.88;2.35;;;;;;;17.77;90.11;101053.00;5078936;28;19931;-67
2024/04/07 02:53:28;;;;;;;10.15;2.58;;;;;;;17.73;88.96;101052.03;5053743;27;20097;-68
2024/04/07 02:56:15;;;;;;;9.82;2.35;;;;;;;17.70;89.02;101052.63;5093283;28;20047;-67
2024/04/07 02:59:03;;;;;;;5.20;2.30;;;;;;;17.67;88.45;101047.75;5086611;27;20048;-68
2024/04/07 03:01:50;;;;;;;7.63;2.38;;;;;;;17.64;88.67;101057.44;5100079;28;20511;-68
2024/04/07 03:04:38;;;;;;;6.47;1.98;;;;;;;17.64;86.54;101067.66;5098825;28;20063;-67
2024/04/07 03:07:25;;;;;;;6.40;2.10;;;;;;;17.63;86.88;101071.53;5085781;28;20082;-67
2024/04/07 03:10:16;;;;;;;4.25;2.08;;;;;;;17.63;86.99;101063.25;5085822;28;20063;-68
2024/04/07 03:13:03;;;;;;;6.95;2.03;;;;;;;17.62;86.98;101072.66;5079634;28;20503;-68
2024/04/07 03:15:50;;;;;;;5.10;1.98;;;;;;;17.62;86.11;101075.41;5077227;28;20047;-68
2024/04/07 03:18:37;;;;;;;4.18;1.80;;;;;;;17.59;83.45;101078.81;5069587;27;20071;-68
2024/04/07 03:21:24;;;;;;;9.27;1.63;;;;;;;17.58;81.01;101068.88;5083652;28;20082;-69
2024/04/07 03:24:11;;;;;;;4.45;1.50;;;;;;;17.55;80.18;101077.78;5098404;28;20544;-69
2024/04/07 03:26:58;;;;;;;6.10;2.00;;;;;;;17.54;80.19;101070.66;5067306;27;20035;-67
2024/04/07 03:29:46;;;;;;;4.25;1.70;;;;;;;17.54;80.77;101065.94;5104842;27;20074;-68
2024/04/07 03:32:33;;;;;;;5.13;1.25;;;;;;;17.55;80.05;101066.75;5074113;28;20462;-67
2024/04/07 03:35:20;;;;;;;3.92;1.40;;;;;;;17.56;79.88;101062.91;5065529;28;20044;-68
2024/04/07 03:38:07;;;;;;;2.55;1.27;;;;;;;17.53;78.31;101055.22;5085494;28;20048;-67
2024/04/07 03:40:54;;;;;;;3.03;1.20;;;;;;;17.50;77.78;101067.69;5097591;28;20039;-67
2024/04/07 03:43:41;;;;;;;3.33;1.52;;;;;;;17.48;77.26;101067.16;5056604;28;20074;-69
2024/04/07 03:46:29;;;;;;;2.60;0.80;;;;;;;17.48;76.86;101045.13;5084702;28;20039;-68
2024/04/07 03:49:16;;;;;;;4.40;1.25;;;;;;;17.46;76.81;101048.22;5095847;28;20048;-68
2024/04/07 03:52:03;;;;;;;2.60;1.00;;;;;;;17.44;77.28;101044.94;5039073;28;20403;-68
2024/04/07 03:54:51;;;;;;;2.53;1.20;;;;;;;17.44;76.06;101022.91;5037269;28;20146;-69
2024/04/07 03:57:38;;;;;;;5.10;1.15;;;;;;;17.46;76.39;101044.63;5054424;28;20105;-69
2024/04/07 04:00:25;;;;;;;3.75;1.67;;;;;;;17.55;78.76;101047.47;5059997;28;20409;-69
2024/04/07 04:03:12;;;;;;;3.88;1.10;;;;;;;17.50;76.21;101042.88;5032519;28;20049;-68
2024/04/07 04:06:01;;;;;;;5.95;1.73;;;;;;;17.50;78.00;101022.78;5077971;28;20044;-68
2024/04/07 04:08:48;;;;;;;1.30;1.00;;;;;;;17.45;75.30;101013.50;5062426;28;20044;-69
2024/04/07 04:11:35;;;;;;;2.58;1.30;;;;;;;17.48;77.05;101011.25;5079299;28;20178;-69
2024/04/07 04:14:22;;;;;;;2.40;1.13;;;;;;;17.48;75.96;101011.25;5077974;28;20052;-69
2024/04/07 04:17:09;;;;;;;2.63;1.10;;;;;;;17.48;76.83;101011.25;5065845;28;20067;-68
2024/04/07 04:19:56;;;;;;;1.90;1.02;;;;;;;17.54;82.28;101037.59;5063828;28;20062;-69
2024/04/07 04:22:43;;;;;;;3.28;1.15;;;;;;;17.51;79.30;101027.16;5065021;28;20528;-70
2024/04/07 04:25:31;;;;;;;3.25;1.35;;;;;;;17.52;81.35;101050.84;5059797;28;20088;-69
2024/04/07 04:28:18;;;;;;;2.03;1.23;;;;;;;17.48;78.53;101049.84;5050142;28;20086;-69
2024/04/07 04:31:09;;;;;;;1.63;1.13;;;;;;;17.46;80.02;101042.69;5083459;28;20039;-68
2024/04/07 04:33:57;;;;;;;1.95;0.90;;;;;;;17.43;76.76;101043.31;5108705;28;20048;-69
2024/04/07 04:36:44;;;;;;;1.60;0.80;;;;;;;17.41;77.16;101042.81;5084230;28;20483;-67
2024/04/07 04:39:31;;;;;;;4.07;1.33;;;;;;;17.40;77.06;101043.94;4699001;28;10000061;-67
2024/04/07 04:42:18;;;;;;;2.03;1.15;;;;;;;17.44;81.37;101039.44;5095999;28;20050;-65
2024/04/07 04:45:06;;;;;;;2.30;1.23;;;;;;;17.41;76.89;101056.59;5091040;28;20110;-69
2024/04/07 04:47:53;;;;;;;1.95;0.93;;;;;;;17.37;76.26;101032.72;5106640;28;20044;-69
2024/04/07 04:50:40;;;;;;;7.13;1.55;;;;;;;17.32;72.77;101055.69;5046960;28;20068;-70
2024/04/07 04:53:31;;;;;;;1.58;1.42;;;;;;;17.39;77.94;101047.81;5078605;28;20082;-69
2024/04/07 04:56:18;;;;;;;1.10;0.95;;;;;;;17.37;76.18;101055.56;5067862;28;20069;-69
2024/04/07 04:59:05;;;;;;;3.13;1.05;;;;;;;17.32;74.27;101074.97;5076757;27;20460;-68
2024/04/07 05:01:53;;;;;;;2.40;1.30;;;;;;;17.30;74.78;101085.47;5071222;28;20047;-66
2024/04/07 05:04:40;;;;;;;1.55;0.90;;;;;;;17.25;73.10;101080.88;5104060;27;20044;-66
2024/04/07 05:07:28;;;;;;;2.75;1.10;;;;;;;17.29;76.27;101086.56;5093491;28;20065;-68
2024/04/07 05:10:15;;;;;;;4.28;1.27;;;;;;;17.29;72.48;101092.06;4739857;28;10000557;-70
2024/04/07 05:13:02;;;;;;;2.75;1.00;;;;;;;17.30;75.72;101087.41;5086688;28;20039;-69
2024/04/07 05:15:52;;;;;;;2.42;1.00;;;;;;;17.25;76.19;101091.09;5084632;27;20507;-69
2024/04/07 05:18:39;;;;;;;5.07;1.23;;;;;;;17.17;72.78;101089.03;5095478;28;20047;-69
2024/04/07 05:21:26;;;;;;;5.28;1.27;;;;;;;17.20;74.09;101104.94;5081232;28;20043;-68
2024/04/07 05:24:14;;;;;;;4.35;1.35;;;;;;;17.17;73.30;101105.53;5078073;28;20047;-68
2024/04/07 05:27:03;;;;;;;3.75;1.30;;;;;;;17.20;76.81;101100.25;5091901;28;20040;-69
2024/04/07 05:29:51;;;;;;;3.15;0.80;;;;;;;17.22;76.22;101103.53;5074485;28;20145;-69
2024/04/07 05:32:38;;;;;;;2.15;1.13;;;;;;;17.21;78.90;101098.31;5079335;28;20048;-69
2024/04/07 05:35:26;;;;;;;2.45;1.10;;;;;;;17.15;75.43;101094.84;5094999;28;20046;-68
2024/04/07 05:38:15;;;;;;;3.00;1.35;;;;;;;17.22;81.27;101100.78;5093540;28;20116;-67
2024/04/07 05:41:04;;;;;;;2.83;1.20;;;;;;;17.17;76.76;101120.16;5065386;28;20044;-68
2024/04/07 05:43:51;;;;;;;2.83;1.02;;;;;;;17.20;78.65;101124.22;5096619;28;20097;-68
2024/04/07 05:46:38;;;;;;;3.58;1.85;;;;;;;17.22;84.12;101108.19;5083938;28;20179;-67
2024/04/07 05:49:25;;;;;;;1.98;1.00;;;;;;;17.17;79.52;101136.69;5082056;28;20067;-68
2024/04/07 05:52:12;;;;;;;2.25;1.02;;;;;;;17.10;77.15;101154.69;5076206;28;20128;-69
2024/04/07 05:54:59;;;;;;;4.00;1.50;;;;;;;17.06;78.07;101159.19;5083524;28;20048;-68
2024/04/07 05:57:46;;;;;;;3.55;0.98;;;;;;;17.07;78.01;101155.31;5080681;28;20075;-71
2024/04/07 06:00:34;;;;;;;2.17;1.10;;;;;;;17.04;77.73;101163.03;5058491;28;20384;-70
2024/04/07 06:03:22;;;;;;;2.92;1.02;;;;;;;17.04;78.96;101168.56;5087516;28;20101;-70
2024/04/07 06:06:09;;;;;;;3.33;1.70;;;;;;;17.15;82.78;101176.63;5086564;28;20135;-69
2024/04/07 06:08:56;;;;;;;3.17;1.40;;;;;;;17.04;79.20;101174.06;5065259;28;20298;-69
2024/04/07 06:11:44;;;;;;;2.95;1.13;;;;;;;17.04;79.95;101173.25;5068976;28;20043;-69
2024/04/07 06:14:31;;;;;;;4.22;1.20;;;;;;;17.08;80.30;101189.97;5068683;28;20460;-68
2024/04/07 06:17:18;;;;;;;2.63;1.25;;;;;;;17.04;80.79;101185.06;5084041;28;20185;-68
2024/04/07 06:20:05;;;;;;;3.58;1.40;;;;;;;17.03;81.63;101183.44;5068421;28;20134;-68
2024/04/07 06:22:52;;;;;;;3.08;1.13;;;;;;;17.00;80.62;101192.31;5085163;28;20052;-69
2024/04/07 06:25:41;;;;;;;4.22;1.50;;;;;;;16.99;80.90;101195.38;5079311;28;20101;-68
2024/04/07 06:28:28;;;;;;;4.57;1.20;;;;;;;16.95;80.37;101194.31;5070658;28;20101;-67
2024/04/07 06:31:15;;;;;;;3.03;1.35;;;;;;;16.95;81.34;101202.59;5069700;28;20089;-67
2024/04/07 06:34:03;;;;;;;3.15;1.17;;;;;;;16.98;82.09;101200.06;5074699;28;20067;-67
2024/04/07 06:36:50;;;;;;;1.85;1.02;;;;;;;16.94;81.49;101189.97;5090071;28;20135;-68
2024/04/07 06:39:38;;;;;;;5.95;1.63;;;;;;;16.94;82.19;101185.25;5077468;28;20050;-68
2024/04/07 06:42:28;;;;;;;5.22;1.58;;;;;;;16.98;82.90;101197.31;5077461;28;20441;-68
2024/04/07 06:45:15;;;;;;;2.05;1.25;;;;;;;16.99;84.31;101204.44;5076490;28;20063;-67
2024/04/07 06:48:02;;;;;;;3.67;1.48;;;;;;;16.92;82.95;101198.50;5093446;28;20124;-69
2024/04/07 06:50:49;;;;;;;4.65;1.30;;;;;;;16.80;82.93;101198.97;5089391;28;20047;-67
2024/04/07 06:53:36;;;;;;;2.88;1.10;;;;;;;16.77;83.41;101198.75;5097195;28;20044;-68
2024/04/07 06:56:24;;;;;;;1.85;1.10;;;;;;;16.75;83.35;101200.97;5085773;28;20475;-68
2024/04/07 06:59:11;;;;;;;2.75;1.40;;;;;;;16.76;83.41;101205.34;5097757;28;20074;-68
2024/04/07 07:01:58;;;;;;;11.88;1.45;;;;;;;16.76;83.39;101210.84;5058294;28;20082;-69
2024/04/07 07:04:47;;;;;;;3.35;1.40;;;;;;;16.81;84.00;101208.88;5098927;28;20044;-68
2024/04/07 07:07:35;;;;;;;2.97;1.52;;;;;;;16.86;83.99;101215.41;5085321;28;20136;-70
2024/04/07 07:10:23;;;;;;;4.55;1.50;;;;;;;16.88;84.29;101222.22;5070193;28;20525;-70
2024/04/07 07:13:10;;;;;;;5.50;1.65;;;;;;;16.91;84.71;101218.91;5099126;28;20085;-70
2024/04/07 07:15:58;;;;;;;3.53;1.40;;;;;;;16.98;87.48;101216.59;5083756;28;20048;-69
2024/04/07 07:18:45;;;;;;;4.25;1.45;;;;;;;16.98;85.66;101222.09;5096607;28;20054;-69
2024/04/07 07:21:32;;;;;;;3.65;1.30;;;;;;;16.99;87.53;101217.41;5099362;28;20052;-68
2024/04/07 07:24:19;;;;;;;3.85;1.70;;;;;;;16.99;87.61;101222.91;5081113;28;20059;-68
2024/04/07 07:27:06;;;;;;;3.08;1.52;;;;;;;16.93;86.59;101230.44;5085618;28;20098;-69
2024/04/07 07:29:53;;;;;;;5.38;1.65;;;;;;;16.96;87.32;101232.56;5084508;28;20078;-67
2024/04/07 07:32:40;;;;;;;3.88;1.48;;;;;;;16.99;89.26;101242.16;5084190;28;20101;-68
2024/04/07 07:35:27;;;;;;;4.70;1.75;;;;;;;17.00;88.45;101243.78;5089882;28;20576;-69
2024/04/07 07:38:14;;;;;;;5.45;1.83;;;;;;;16.95;87.80;101241.13;5099888;28;20082;-68
2024/04/07 07:41:01;;;;;;;4.25;1.50;;;;;;;17.01;89.24;101256.44;5079808;28;20044;-68
2024/04/07 07:43:48;;;;;;;2.70;1.35;;;;;;;17.05;90.21;101257.47;5082109;27;20044;-69
2024/04/07 07:46:35;;;;;;;3.47;1.50;;;;;;;17.04;89.73;101251.16;5100032;28;20518;-69
2024/04/07 07:49:22;;;;;;;4.13;1.98;;;;;;;17.06;89.07;101252.81;5084923;28;20136;-69
2024/04/07 07:52:09;;;;;;;5.20;2.00;;;;;;;17.09;90.21;101254.94;5099880;28;20056;-68
2024/04/07 07:54:56;;;;;;;6.93;2.33;;;;;;;17.10;90.00;101256.56;5078054;28;20047;-68
2024/04/07 07:57:43;;;;;;;5.00;1.70;;;;;;;17.14;91.13;101266.69;5061474;28;20046;-68
2024/04/07 08:00:30;;;;;;;6.60;2.35;;;;;;;17.10;90.52;101270.34;5084916;28;20070;-68
2024/04/07 08:03:17;;;;;;;6.97;2.47;;;;;;;17.16;93.15;101266.38;5099883;28;20074;-68
2024/04/07 08:06:04;;;;;;;8.15;2.63;;;;;;;17.21;94.45;101269.06;5084717;28;20051;-68
2024/04/07 08:08:51;;;;;;;9.50;2.92;;;;;;;17.23;95.36;101277.81;5084842;28;20109;-68
2024/04/07 08:11:38;;;;;;;11.15;3.00;;;;;;;17.24;94.48;101279.44;5084281;28;20040;-69
2024/04/07 08:14:25;;;;;;;9.23;2.90;;;;;;;17.31;96.15;101266.09;5088182;28;20059;-69
2024/04/07 08:17:12;;;;;;;11.40;3.30;;;;;;;17.32;95.92;101278.78;5079232;28;20040;-68
2024/04/07 08:19:59;;;;;;;10.20;2.60;;;;;;;17.34;94.88;101293.06;5079225;28;20044;-68
2024/04/07 08:22:47;;;;;;;9.02;2.85;;;;;;;17.40;95.89;101282.78;5079580;28;20515;-69
2024/04/07 08:25:34;;;;;;;7.25;3.08;;;;;;;17.41;95.92;101289.91;5071716;27;20051;-69
2024/04/07 08:28:24;;;;;;;9.82;3.50;;;;;;;17.45;96.20;101280.72;5112660;27;20039;-69
2024/04/07 08:31:13;;;;;;;10.18;3.13;;;;;;;17.52;96.83;101285.03;5100552;28;20043;-67
2024/04/07 08:34:00;;;;;;;8.57;2.50;;;;;;;17.50;92.02;101287.28;5104403;28;20476;-67
2024/04/07 08:36:48;;;;;;;5.85;2.17;;;;;;;17.51;92.45;101286.16;5109045;27;20035;-67
2024/04/07 08:39:35;;;;;;;5.90;2.42;;;;;;;17.51;91.66;101286.16;5122580;28;20101;-69
2024/04/07 08:42:24;;;;;;;9.13;2.28;;;;;;;17.49;87.56;101277.38;5116254;28;20048;-63
2024/04/07 08:45:12;;;;;;;5.53;2.08;;;;;;;17.47;87.61;101285.94;5098140;28;20063;-68
2024/04/07 08:48:00;;;;;;;5.75;2.50;;;;;;;17.48;87.46;101286.75;5103942;28;20039;-68
2024/04/07 08:50:48;;;;;;;9.57;2.22;;;;;;;17.45;85.80;101277.97;5085006;28;20070;-67
2024/04/07 08:53:40;;;;;;;8.45;2.38;;;;;;;17.52;87.58;101287.78;5100126;28;20048;-64
2024/04/07 08:56:27;;;;;;;7.60;2.60;;;;;;;17.55;88.30;101298.19;5104684;28;20059;-67
2024/04/07 08:59:15;;;;;;;6.47;2.13;;;;;;;17.56;86.96;101288.84;5093148;27;20043;-68
2024/04/07 09:02:05;;;;;;;6.93;2.22;;;;;;;17.61;88.24;101295.06;5076949;28;20036;-68
2024/04/07 09:04:53;;;;;;;8.30;2.90;;;;;;;17.65;88.46;101298.00;5071721;28;20438;-68
2024/04/07 09:07:40;;;;;;;8.60;2.63;;;;;;;17.66;86.05;101291.38;5082527;28;20039;-70
2024/04/07 09:10:27;;;;;;;10.48;3.38;;;;;;;17.71;88.33;101291.28;5063641;28;20036;-69
2024/04/07 09:13:16;;;;;;;10.82;2.97;;;;;;;17.74;86.86;101290.66;5050925;28;20093;-69
2024/04/07 09:16:04;;;;;;;10.40;3.75;;;;;;;17.80;92.54;101299.69;5087696;27;20112;-68
2024/04/07 09:18:51;;;;;;;9.52;3.00;;;;;;;17.78;84.50;101297.22;5069246;28;20408;-69
2024/04/07 09:21:44;;;;;;;11.52;3.03;;;;;;;17.82;87.03;101287.25;5077420;28;20101;-69
2024/04/07 09:24:32;;;;;;;6.22;2.38;;;;;;;17.85;86.41;101292.16;5071978;28;20058;-69
2024/04/07 09:27:19;;;;;;;11.18;3.28;;;;;;;17.90;90.57;101284.91;5102993;27;20058;-68
2024/04/07 09:30:07;;;;;;;9.13;2.50;;;;;;;17.94;85.23;101296.94;5076791;28;20044;-68
2024/04/07 09:32:55;;;;;;;10.45;3.63;;;;;;;17.99;87.35;101303.19;5049444;28;20040;-68
2024/04/07 09:35:44;;;;;;;8.10;2.72;;;;;;;18.02;87.28;101293.47;5075484;28;20492;-67
2024/04/07 09:38:31;;;;;;;13.48;2.90;;;;;;;18.00;85.01;101298.47;5064295;28;20044;-67
2024/04/07 09:41:20;;;;;;;8.05;2.50;;;;;;;18.02;83.43;101297.06;5063446;28;20054;-69
2024/04/07 09:44:09;;;;;;;9.72;3.05;;;;;;;18.05;84.59;101301.94;4374003;28;10021515;-69
2024/04/07 09:47:06;;;;;;;11.55;2.65;;;;;;;18.12;84.28;101298.78;5058791;28;20524;-70
2024/04/07 09:50:24;;;;;;;10.45;2.97;;;;;;;18.16;90.23;101293.44;5081491;28;20071;-70
2024/04/07 09:53:21;;;;;;;5.20;1.98;;;;;;;18.14;78.71;101291.03;5060470;28;20044;-70
2024/04/07 09:56:11;;;;;;;5.55;2.17;;;;;;;18.17;80.80;101289.59;5049354;28;20059;-69
2024/04/07 09:59:00;;;;;;;7.65;3.13;;;;;;;18.23;89.26;101291.94;5031920;28;20576;-70
2024/04/07 10:01:48;;;;;;;6.28;2.47;;;;;;;18.23;81.68;101297.47;5040193;28;20106;-70
2024/04/07 10:04:36;;;;;;;4.30;1.70;;;;;;;18.20;75.98;101295.28;5047985;28;20134;-70
2024/04/07 10:07:23;;;;;;;5.45;2.10;;;;;;;18.15;73.84;101300.09;5042950;28;20509;-69
2024/04/07 10:10:10;;;;;;;5.68;1.90;;;;;;;18.13;73.07;101305.91;5074080;28;20101;-68
2024/04/07 10:13:07;;;;;;;5.30;1.90;;;;;;;18.15;72.60;101295.41;5049024;28;20131;-69
2024/04/07 10:15:58;;;;;;;5.63;1.92;;;;;;;18.18;72.99;101297.53;5072297;28;20132;-68
2024/04/07 10:18:47;;;;;;;4.93;1.75;;;;;;;18.21;72.49;101277.63;5070512;28;20504;-68
2024/04/07 10:21:34;;;;;;;5.38;2.00;;;;;;;18.23;70.73;101286.41;5046281;28;20040;-68
2024/04/07 10:24:23;;;;;;;5.88;2.08;;;;;;;18.27;71.87;101289.38;5063595;28;20049;-68
2024/04/07 10:27:11;;;;;;;6.20;2.25;;;;;;;18.27;69.11;101287.41;5040694;28;20048;-68
2024/04/07 10:29:59;;;;;;;7.45;2.63;;;;;;;18.30;70.22;101278.53;5026379;28;20516;-70
2024/04/07 10:32:50;;;;;;;4.28;1.83;;;;;;;18.29;67.25;101279.66;5052838;28;20052;-68
2024/04/07 10:35:55;;;;;;;5.95;2.20;;;;;;;18.34;71.43;101283.44;5061470;28;20051;-69
2024/04/07 10:38:48;;;;;;;3.85;1.67;;;;;;;18.37;67.64;101280.84;5059127;28;20040;-68
2024/04/07 10:41:37;;;;;;;4.97;2.10;;;;;;;18.38;64.95;101265.16;5034522;28;20066;-68
2024/04/07 10:44:26;;;;;;;9.50;2.53;;;;;;;18.46;70.68;101278.19;5048885;28;20044;-67
2024/04/07 10:47:14;;;;;;;7.97;2.92;;;;;;;18.47;65.37;101274.28;5065399;28;20147;-68
2024/04/07 10:50:01;;;;;;;4.40;2.03;;;;;;;18.49;64.59;101274.81;5072217;28;20071;-70
2024/04/07 10:53:00;;;;;;;6.72;2.53;;;;;;;18.50;63.25;101273.69;5088138;28;20082;-70
2024/04/07 10:55:47;;;;;;;4.07;1.73;;;;;;;18.53;63.73;101278.59;5062265;28;20152;-69
2024/04/07 10:58:35;;;;;;;7.63;1.90;;;;;;;18.56;62.59;101275.19;5065383;28;20043;-69
2024/04/07 11:01:22;;;;;;;5.30;1.65;;;;;;;18.59;63.41;101282.03;5078900;28;20047;-70
2024/04/07 11:04:09;;;;;;;13.75;3.92;;;;;;;18.69;87.23;101265.25;5064468;28;20062;-70
2024/04/07 11:06:56;;;;;;;8.70;3.35;;;;;;;18.72;85.56;101265.44;5063051;28;20048;-70
2024/04/07 11:09:43;;;;;;;12.18;3.65;;;;;;;18.83;92.94;101268.81;5038902;28;20046;-70
2024/04/07 11:12:30;;;;;;;10.70;3.13;;;;;;;18.93;92.39;101259.47;5098699;28;20043;-70
2024/04/07 11:15:18;;;;;;;6.53;2.17;;;;;;;18.91;81.80;101272.78;5082915;28;20104;-69
2024/04/07 11:18:16;;;;;;;7.60;2.63;;;;;;;19.00;92.04;101270.06;5066708;28;20052;-68
2024/04/07 11:21:04;;;;;;;3.20;1.63;;;;;;;19.02;73.34;101270.56;5065249;28;20097;-68
2024/04/07 11:23:51;;;;;;;7.32;2.72;;;;;;;19.15;79.76;101275.22;5051966;28;20056;-69
2024/04/07 11:26:39;;;;;;;3.63;1.75;;;;;;;19.11;87.48;101272.25;5052046;28;20040;-70
2024/04/07 11:29:28;;;;;;;4.38;1.63;;;;;;;19.07;63.30;101282.31;5073760;28;20040;-69
2024/04/07 11:32:15;;;;;;;5.18;1.70;;;;;;;19.10;70.65;101270.63;5078636;28;20470;-70
2024/04/07 11:35:03;;;;;;;4.80;1.27;;;;;;;19.08;57.24;101270.13;5079889;28;20040;-69
2024/04/07 11:37:50;;;;;;;3.17;1.42;;;;;;;19.07;59.29;101282.31;5057506;27;20055;-70
2024/04/07 11:40:38;;;;;;;7.63;2.58;;;;;;;19.16;82.73;101263.84;5099180;28;20050;-69
2024/04/07 11:43:25;;;;;;;3.78;1.80;;;;;;;19.20;62.98;101277.03;5098901;28;20127;-70
2024/04/07 11:46:12;;;;;;;5.82;2.30;;;;;;;19.24;70.36;101261.44;5057355;28;20466;-70
2024/04/07 11:48:59;;;;;;;5.85;2.17;;;;;;;19.28;72.85;101262.44;5088328;27;20051;-71
2024/04/07 11:51:46;;;;;;;4.13;1.58;;;;;;;19.33;65.88;101262.31;5058079;28;20064;-69
2024/04/07 11:54:33;;;;;;;6.50;2.42;;;;;;;19.31;76.78;101259.03;5098510;28;20124;-69
2024/04/07 11:57:20;;;;;;;5.07;2.20;;;;;;;19.34;77.98;101258.44;5098383;28;20048;-69
2024/04/07 12:00:08;;;;;;;5.47;1.98;;;;;;;19.42;85.55;101252.13;5085182;28;20509;-70
2024/04/07 12:03:01;;;;;;;5.75;2.05;;;;;;;19.43;74.93;101252.94;5085763;28;20039;-69
2024/04/07 12:05:48;;;;;;;3.95;1.77;;;;;;;19.46;64.09;101266.94;5097722;28;20461;-71
2024/04/07 12:08:35;;;;;;;5.13;1.63;;;;;;;19.44;62.33;101260.09;5057353;28;20051;-69
2024/04/07 12:11:23;;;;;;;2.80;1.55;;;;;;;19.53;83.50;101249.88;5055962;28;20093;-69
2024/04/07 12:14:10;;;;;;;6.68;2.38;;;;;;;19.46;62.66;101253.13;5084459;28;20079;-70
2024/04/07 12:16:58;;;;;;;6.53;1.63;;;;;;;19.46;61.26;101258.66;5084514;28;20047;-69
2024/04/07 12:19:45;;;;;;;4.65;1.70;;;;;;;19.47;64.46;101254.75;5072318;28;20040;-69
2024/04/07 12:22:38;;;;;;;9.05;2.40;;;;;;;19.48;63.26;101258.31;5055464;28;20384;-69
2024/04/07 12:25:27;;;;;;;3.50;1.38;;;;;;;19.51;56.02;101258.50;5084624;28;20052;-69
2024/04/07 12:28:15;;;;;;;4.65;1.85;;;;;;;19.51;56.30;101264.03;5068065;28;20506;-68
2024/04/07 12:31:02;;;;;;;6.15;2.45;;;;;;;19.53;58.86;101250.72;5099265;28;20043;-69
2024/04/07 12:33:49;;;;;;;8.93;3.55;;;;;;;19.57;66.79;101250.88;5050926;28;20044;-70
2024/04/07 12:36:36;;;;;;;6.57;2.53;;;;;;;19.59;59.89;101237.56;5064429;28;20126;-69
2024/04/07 12:39:23;;;;;;;4.65;1.88;;;;;;;19.62;53.71;101241.63;5068614;28;20104;-69
2024/04/07 12:42:10;;;;;;;1.73;1.10;;;;;;;19.65;48.76;101235.47;5092754;28;20048;-67
2024/04/07 12:44:58;;;;;;;7.13;2.75;;;;;;;19.66;63.71;101239.88;5081062;28;20415;-68
2024/04/07 12:47:45;;;;;;;7.13;3.13;;;;;;;19.66;56.85;101253.69;5073644;28;20201;-69
2024/04/07 12:50:32;;;;;;;5.50;2.00;;;;;;;19.68;54.30;101245.94;5076325;28;20054;-69
2024/04/07 12:53:19;;;;;;;2.83;1.27;;;;;;;19.71;50.77;101235.03;5085737;28;20089;-70
2024/04/07 12:56:07;;;;;;;5.13;2.35;;;;;;;19.74;62.04;101236.34;5059383;28;20051;-68
2024/04/07 12:58:54;;;;;;;4.70;1.80;;;;;;;19.74;60.02;101233.59;5069059;28;20078;-68
2024/04/07 13:01:41;;;;;;;4.80;2.00;;;;;;;19.74;57.83;101222.53;5060385;28;20372;-70
2024/04/07 13:04:28;;;;;;;7.45;2.25;;;;;;;19.77;58.93;101221.88;5072750;28;20054;-69
2024/04/07 13:07:15;;;;;;;4.90;2.05;;;;;;;19.78;56.73;101215.22;5098376;28;20051;-70